createdAt,value
2019-05-02T00:00:12.605Z,18.12
2019-05-02T00:02:41.935Z,17.66
2019-05-02T00:05:12.058Z,17.76
2019-05-02T00:07:42.888Z,17.86
2019-05-02T00:10:15.087Z,17.81
2019-05-02T00:12:44.886Z,17.78
2019-05-02T00:15:15.404Z,17.88
2019-05-02T00:17:44.501Z,17.84
2019-05-02T00:20:14.950Z,17.40
2019-05-02T00:22:48.128Z,17.39
2019-05-02T00:25:15.948Z,17.52
2019-05-02T00:27:45.943Z,17.66
2019-05-02T00:30:15.969Z,17.56
2019-05-02T00:32:45.066Z,17.70
2019-05-02T00:35:14.620Z,17.61
2019-05-02T00:37:43.942Z,17.69
2019-05-02T00:40:13.039Z,17.46
2019-05-02T00:42:42.095Z,17.61
2019-05-02T00:45:14.109Z,17.50
2019-05-02T00:47:49.801Z,17.27
2019-05-02T00:50:19.129Z,17.33
2019-05-02T00:52:48.494Z,17.00
2019-05-02T00:55:17.565Z,17.22
2019-05-02T00:57:51.004Z,17.11
2019-05-02T01:00:18.724Z,17.16
2019-05-02T01:02:53.819Z,17.18
2019-05-02T01:05:22.881Z,17.16
2019-05-02T01:07:55.922Z,17.20
2019-05-02T01:10:22.737Z,17.29
2019-05-02T01:12:52.083Z,17.19
2019-05-02T01:15:21.139Z,17.16
2019-05-02T01:17:50.238Z,16.99
2019-05-02T01:20:22.279Z,17.27
2019-05-02T01:22:52.307Z,17.14
2019-05-02T01:25:21.331Z,17.06
2019-05-02T01:28:21.780Z,17.09
2019-05-02T01:31:20.242Z,17.00
2019-05-02T01:34:23.460Z,17.06
2019-05-02T01:37:20.786Z,17.23
2019-05-02T01:39:45.332Z,17.06
2019-05-02T01:42:14.376Z,17.24
2019-05-02T01:44:43.477Z,17.27
2019-05-02T01:47:12.856Z,17.29
2019-05-02T01:49:41.918Z,17.34
2019-05-02T01:52:10.980Z,17.33
2019-05-02T01:54:40.758Z,17.14
2019-05-02T01:57:11.153Z,17.13
2019-05-02T01:59:40.326Z,17.33
2019-05-02T02:02:09.649Z,17.25
2019-05-02T02:04:38.709Z,17.15
2019-05-02T02:07:07.790Z,17.09
2019-05-02T02:09:38.922Z,17.08
2019-05-02T02:12:09.895Z,17.01
2019-05-02T02:14:38.731Z,16.91
2019-05-02T02:17:10.092Z,16.78
2019-05-02T02:19:46.997Z,16.70
2019-05-02T02:22:39.150Z,16.66
2019-05-02T02:25:32.246Z,16.60
2019-05-02T02:27:59.645Z,16.60
2019-05-02T02:30:29.006Z,16.57
2019-05-02T02:33:00.730Z,16.56
2019-05-02T02:35:29.409Z,16.29
2019-05-02T02:37:58.483Z,16.43
2019-05-02T02:40:33.355Z,16.18
2019-05-02T02:43:12.827Z,16.27
2019-05-02T02:46:00.655Z,16.24
2019-05-02T02:48:33.909Z,16.29
2019-05-02T02:51:02.629Z,16.31
2019-05-02T02:53:31.736Z,16.20
2019-05-02T02:56:03.927Z,16.31
2019-05-02T02:58:44.513Z,16.12
2019-05-02T03:01:04.384Z,16.08
2019-05-02T03:03:35.308Z,16.11
2019-05-02T03:06:08.056Z,15.89
2019-05-02T03:08:45.135Z,15.89
2019-05-02T03:11:08.109Z,15.71
2019-05-02T03:14:05.688Z,15.54
2019-05-02T03:16:27.883Z,15.69
2019-05-02T03:18:56.937Z,15.64
2019-05-02T03:21:26.053Z,15.74
2019-05-02T03:24:02.803Z,15.69
2019-05-02T03:26:26.425Z,15.67
2019-05-02T03:28:58.661Z,15.63
2019-05-02T03:31:30.203Z,15.63
2019-05-02T03:34:00.746Z,15.69
2019-05-02T03:36:35.786Z,15.67
2019-05-02T03:39:00.381Z,15.64
2019-05-02T03:41:29.419Z,15.70
2019-05-02T03:44:10.863Z,15.76
2019-05-02T03:46:29.672Z,15.61
2019-05-02T03:49:06.809Z,15.57
2019-05-02T03:51:30.343Z,15.36
2019-05-02T03:54:07.743Z,15.49
2019-05-02T03:56:30.460Z,15.52
2019-05-02T03:58:59.539Z,15.47
2019-05-02T04:01:34.540Z,15.56
2019-05-02T04:03:59.640Z,15.62
2019-05-02T04:06:28.708Z,15.64
2019-05-02T04:08:59.847Z,15.30
2019-05-02T04:11:37.845Z,15.32
2019-05-02T04:13:59.681Z,15.16
2019-05-02T04:16:29.895Z,15.30
2019-05-02T04:19:07.640Z,15.24
2019-05-02T04:21:36.923Z,15.23
2019-05-02T04:24:13.293Z,15.41
2019-05-02T04:26:52.073Z,15.32
2019-05-02T04:29:11.313Z,15.34
2019-05-02T04:31:40.410Z,15.37
2019-05-02T04:34:15.824Z,15.45
2019-05-02T04:36:40.625Z,15.46
2019-05-02T04:39:14.998Z,15.47
2019-05-02T04:41:42.374Z,15.36
2019-05-02T04:44:11.318Z,15.46
2019-05-02T04:46:40.656Z,15.41
2019-05-02T04:49:10.074Z,15.46
2019-05-02T04:51:39.136Z,15.53
2019-05-02T04:54:09.378Z,15.52
2019-05-02T04:56:48.255Z,15.49
2019-05-02T04:59:18.157Z,15.42
2019-05-02T05:01:49.091Z,15.44
2019-05-02T05:04:11.744Z,15.45
2019-05-02T05:06:46.663Z,15.35
2019-05-02T05:09:14.810Z,15.56
2019-05-02T05:11:42.731Z,15.36
2019-05-02T05:14:11.768Z,15.47
2019-05-02T05:16:45.552Z,15.62
2019-05-02T05:19:11.986Z,15.50
2019-05-02T05:21:41.128Z,15.63
2019-05-02T05:24:27.979Z,15.57
2019-05-02T05:27:00.171Z,15.66
2019-05-02T05:29:29.403Z,15.77
2019-05-02T05:32:05.455Z,15.77
2019-05-02T05:34:32.701Z,15.87
2019-05-02T05:37:03.604Z,15.87
2019-05-02T05:39:37.980Z,15.81
2019-05-02T05:42:10.391Z,15.89
2019-05-02T05:44:39.941Z,15.92
2019-05-02T05:47:12.204Z,15.86
2019-05-02T05:49:40.014Z,15.82
2019-05-02T05:52:09.249Z,15.95
2019-05-02T05:54:42.240Z,15.85
2019-05-02T05:57:17.434Z,15.95
2019-05-02T05:59:43.373Z,15.99
2019-05-02T06:02:14.854Z,16.25
2019-05-02T06:04:43.917Z,16.33
2019-05-02T06:07:13.826Z,16.44
2019-05-02T06:09:45.397Z,16.19
2019-05-02T06:12:15.858Z,16.24
2019-05-02T06:14:46.417Z,16.25
2019-05-02T06:17:16.020Z,16.36
2019-05-02T06:19:48.231Z,16.39
2019-05-02T06:22:23.911Z,16.51
2019-05-02T06:24:50.903Z,16.53
2019-05-02T06:27:20.880Z,16.57
2019-05-02T06:29:56.054Z,16.62
2019-05-02T06:32:23.225Z,16.63
2019-05-02T06:34:52.676Z,16.60
2019-05-02T06:37:21.803Z,16.63
2019-05-02T06:39:51.324Z,16.55
2019-05-02T06:42:20.379Z,16.66
2019-05-02T06:44:50.489Z,16.52
2019-05-02T06:47:22.638Z,16.59
2019-05-02T06:50:02.708Z,16.44
2019-05-02T06:52:47.266Z,16.57
2019-05-02T06:55:40.480Z,16.63
2019-05-02T06:58:10.762Z,16.68
2019-05-02T07:00:56.081Z,16.76
2019-05-02T07:03:12.655Z,17.00
2019-05-02T07:05:41.991Z,16.83
2019-05-02T07:08:13.556Z,16.96
2019-05-02T07:10:44.674Z,17.02
2019-05-02T07:13:15.041Z,17.03
2019-05-02T07:16:37.312Z,16.93
2019-05-02T07:18:52.775Z,16.97
2019-05-02T07:21:23.599Z,17.17
2019-05-02T07:23:53.595Z,17.16
2019-05-02T07:26:23.713Z,16.93
2019-05-02T07:28:52.794Z,17.16
2019-05-02T07:31:21.886Z,17.21
2019-05-02T07:33:51.263Z,16.93
2019-05-02T07:36:20.338Z,17.08
2019-05-02T07:38:49.407Z,17.18
2019-05-02T07:41:18.972Z,17.04
2019-05-02T07:43:52.166Z,16.85
2019-05-02T07:46:21.115Z,16.86
2019-05-02T07:48:54.685Z,16.90
2019-05-02T07:51:22.625Z,16.74
2019-05-02T07:53:51.816Z,16.99
2019-05-02T07:56:21.290Z,17.11
2019-05-02T07:58:50.425Z,17.08
2019-05-02T08:01:20.341Z,17.24
2019-05-02T08:03:50.813Z,17.41
2019-05-02T08:06:19.909Z,17.52
2019-05-02T08:08:49.001Z,17.51
2019-05-02T08:11:18.408Z,17.72
2019-05-02T08:13:49.479Z,17.41
2019-05-02T08:16:22.314Z,17.65
2019-05-02T08:18:49.626Z,17.70
2019-05-02T08:21:18.694Z,17.70
2019-05-02T08:23:47.782Z,17.74
2019-05-02T08:26:21.720Z,17.77
2019-05-02T08:28:55.612Z,17.63
2019-05-02T08:31:24.801Z,17.50
2019-05-02T08:33:53.877Z,17.60
2019-05-02T08:36:22.957Z,17.17
2019-05-02T08:38:53.560Z,17.33
2019-05-02T08:41:23.065Z,17.49
2019-05-02T08:43:52.145Z,17.27
2019-05-02T08:46:21.276Z,17.37
2019-05-02T08:48:50.809Z,17.60
2019-05-02T08:51:20.320Z,17.54
2019-05-02T08:53:52.174Z,17.42
2019-05-02T08:56:21.457Z,17.41
2019-05-02T08:58:51.249Z,17.56
2019-05-02T09:01:20.286Z,17.46
2019-05-02T09:03:55.148Z,17.62
2019-05-02T09:06:24.065Z,17.76
2019-05-02T09:08:53.322Z,17.97
2019-05-02T09:11:22.361Z,18.04
2019-05-02T09:13:52.646Z,18.20
2019-05-02T09:16:28.463Z,18.42
2019-05-02T09:18:54.221Z,18.40
2019-05-02T09:21:26.691Z,18.47
2019-05-02T09:23:54.527Z,18.48
2019-05-02T09:26:34.988Z,18.51
2019-05-02T09:28:56.287Z,18.62
2019-05-02T09:31:25.496Z,18.46
2019-05-02T09:33:55.675Z,18.82
2019-05-02T09:36:25.100Z,18.85
2019-05-02T09:38:57.595Z,18.88
2019-05-02T09:41:26.909Z,18.95
2019-05-02T09:43:56.072Z,19.03
2019-05-02T09:46:25.212Z,18.96
2019-05-02T09:48:57.088Z,19.22
2019-05-02T09:51:25.392Z,19.20
2019-05-02T09:53:57.227Z,19.14
2019-05-02T09:56:25.319Z,19.31
2019-05-02T09:59:02.286Z,19.36
2019-05-02T10:01:32.982Z,19.64
2019-05-02T10:04:05.625Z,19.51
2019-05-02T10:06:34.765Z,19.57
2019-05-02T10:09:05.475Z,19.63
2019-05-02T10:11:34.991Z,19.83
2019-05-02T10:14:04.805Z,19.90
2019-05-02T10:16:34.160Z,20.09
2019-05-02T10:19:09.576Z,20.18
2019-05-02T10:21:34.319Z,20.32
2019-05-02T10:24:05.273Z,20.39
2019-05-02T10:26:34.672Z,20.24
2019-05-02T10:29:03.842Z,20.50
2019-05-02T10:31:37.715Z,20.50
2019-05-02T10:34:13.002Z,20.33
2019-05-02T10:36:38.548Z,20.60
2019-05-02T10:39:08.533Z,20.73
2019-05-02T10:41:40.922Z,20.69
2019-05-02T10:44:10.380Z,20.88
2019-05-02T10:46:57.425Z,20.80
2019-05-02T10:49:52.722Z,21.08
2019-05-02T10:52:29.624Z,21.20
2019-05-02T10:54:53.141Z,21.39
2019-05-02T10:57:22.587Z,21.55
2019-05-02T10:59:52.543Z,21.33
2019-05-02T11:02:39.480Z,21.41
2019-05-02T11:05:16.819Z,21.45
2019-05-02T11:07:56.914Z,20.89
2019-05-02T11:10:25.847Z,21.04
2019-05-02T11:13:16.349Z,21.46
2019-05-02T11:16:07.799Z,21.38
2019-05-02T11:18:52.499Z,21.40
2019-05-02T11:21:23.356Z,21.22
2019-05-02T11:23:52.820Z,21.53
2019-05-02T11:26:25.043Z,21.73
2019-05-02T11:28:53.328Z,21.79
2019-05-02T11:31:22.459Z,21.93
2019-05-02T11:33:52.722Z,22.00
2019-05-02T11:36:22.560Z,22.29
2019-05-02T11:39:00.190Z,22.33
2019-05-02T11:41:22.598Z,22.65
2019-05-02T11:43:55.488Z,22.69
2019-05-02T11:46:23.145Z,22.97
2019-05-02T11:48:56.339Z,23.18
2019-05-02T11:51:23.342Z,22.58
2019-05-02T11:53:52.872Z,22.58
2019-05-02T11:56:22.390Z,22.34
2019-05-02T11:58:54.956Z,22.35
2019-05-02T12:01:35.807Z,22.74
2019-05-02T12:03:56.820Z,23.02
2019-05-02T12:06:27.472Z,23.24
2019-05-02T12:08:57.747Z,23.42
2019-05-02T12:11:26.943Z,23.49
2019-05-02T12:13:57.142Z,23.28
2019-05-02T12:16:26.282Z,23.35
2019-05-02T12:19:08.539Z,23.22
2019-05-02T12:21:27.660Z,23.45
2019-05-02T12:23:57.106Z,23.77
2019-05-02T12:26:26.513Z,24.14
2019-05-02T12:28:55.885Z,24.32
2019-05-02T12:31:27.902Z,24.24
2019-05-02T12:33:57.729Z,24.23
2019-05-02T12:36:26.927Z,24.54
2019-05-02T12:38:56.051Z,24.51
2019-05-02T12:41:26.454Z,24.80
2019-05-02T12:43:55.660Z,24.68
2019-05-02T12:46:24.897Z,24.94
2019-05-02T12:48:53.963Z,24.64
2019-05-02T12:51:23.201Z,23.55
2019-05-02T12:53:53.018Z,23.49
2019-05-02T12:56:22.944Z,22.92
2019-05-02T12:58:52.965Z,22.55
2019-05-02T13:01:22.604Z,22.56
2019-05-02T13:04:12.487Z,22.64
2019-05-02T13:06:42.305Z,22.43
2019-05-02T13:09:12.653Z,22.74
2019-05-02T13:12:14.044Z,23.20
2019-05-02T13:14:43.177Z,23.34
2019-05-02T13:17:12.621Z,24.49
2019-05-02T13:19:55.177Z,24.93
2019-05-02T13:22:26.072Z,25.51
2019-05-02T13:24:58.646Z,25.82
2019-05-02T13:27:32.218Z,26.30
2019-05-02T13:30:00.254Z,26.27
2019-05-02T13:32:53.704Z,26.45
2019-05-02T13:35:39.228Z,26.39
2019-05-02T13:38:09.135Z,25.90
2019-05-02T13:40:43.366Z,24.96
2019-05-02T13:43:12.968Z,25.19
2019-05-02T13:46:13.870Z,24.94
2019-05-02T13:48:43.048Z,24.28
2019-05-02T13:51:12.457Z,24.64
2019-05-02T13:53:59.102Z,24.85
2019-05-02T13:56:47.538Z,24.48
2019-05-02T13:59:17.258Z,25.13
2019-05-02T14:01:52.102Z,25.46
2019-05-02T14:04:19.492Z,25.38
2019-05-02T14:06:48.684Z,25.59
2019-05-02T14:09:44.071Z,25.55
2019-05-02T14:12:29.727Z,25.24
2019-05-02T14:15:00.263Z,24.40
2019-05-02T14:17:29.445Z,24.24
2019-05-02T14:22:29.859Z,24.11
2019-05-02T14:24:59.066Z,24.17
2019-05-02T14:27:32.726Z,24.24
2019-05-02T14:30:02.856Z,24.71
2019-05-02T14:32:32.883Z,25.41
2019-05-02T14:35:11.652Z,26.09
2019-05-02T14:37:42.122Z,25.86
2019-05-02T14:40:18.237Z,25.14
2019-05-02T14:42:47.368Z,24.77
2019-05-02T14:45:27.158Z,24.51
2019-05-02T14:47:49.713Z,24.58
2019-05-02T14:50:24.258Z,24.72
2019-05-02T14:52:51.685Z,24.50
2019-05-02T14:55:22.218Z,24.96
2019-05-02T14:57:52.615Z,25.03
2019-05-02T15:00:25.333Z,25.84
2019-05-02T15:02:54.435Z,25.70
2019-05-02T15:05:29.549Z,25.73
2019-05-02T15:07:56.929Z,25.98
2019-05-02T15:10:28.097Z,26.34
2019-05-02T15:12:59.518Z,26.63
2019-05-02T15:15:33.619Z,26.69
2019-05-02T15:17:59.365Z,27.05
2019-05-02T15:20:37.200Z,27.16
2019-05-02T15:22:59.581Z,26.36
2019-05-02T15:25:28.724Z,26.82
2019-05-02T15:28:00.054Z,26.31
2019-05-02T15:30:28.997Z,25.59
2019-05-02T15:33:09.131Z,24.67
2019-05-02T15:36:02.216Z,24.53
2019-05-02T15:38:32.340Z,24.47
2019-05-02T15:41:07.023Z,24.22
2019-05-02T15:43:33.128Z,24.22
2019-05-02T15:46:03.739Z,23.92
2019-05-02T15:48:37.871Z,23.75
2019-05-02T15:51:08.976Z,23.74
2019-05-02T15:54:03.077Z,23.76
2019-05-02T15:56:24.332Z,23.84
2019-05-02T15:58:53.241Z,23.88
2019-05-02T16:01:36.581Z,24.15
2019-05-02T16:04:07.315Z,24.03
2019-05-02T16:06:36.655Z,24.05
2019-05-02T16:09:07.759Z,24.00
2019-05-02T16:11:40.427Z,24.30
2019-05-02T16:14:10.582Z,24.42
2019-05-02T16:16:45.106Z,24.30
2019-05-02T16:19:24.836Z,24.17
2019-05-02T16:21:52.083Z,24.31
2019-05-02T16:24:24.907Z,24.04
2019-05-02T16:26:57.110Z,23.94
2019-05-02T16:29:41.877Z,23.80
2019-05-02T16:32:35.742Z,23.71
2019-05-02T16:35:12.184Z,23.58
2019-05-02T16:37:36.852Z,23.42
2019-05-02T16:40:08.071Z,23.37
2019-05-02T16:42:45.652Z,23.07
2019-05-02T16:45:18.191Z,23.12
2019-05-02T16:47:58.361Z,22.58
2019-05-02T16:50:20.460Z,22.21
2019-05-02T16:52:50.578Z,22.27
2019-05-02T16:55:25.110Z,22.24
2019-05-02T16:57:51.897Z,22.15
2019-05-02T17:00:25.652Z,22.00
2019-05-02T17:02:57.623Z,21.91
2019-05-02T17:05:27.097Z,21.34
2019-05-02T17:08:27.780Z,20.72
2019-05-02T17:11:03.597Z,20.10
2019-05-02T17:13:39.375Z,19.96
2019-05-02T17:16:13.249Z,20.15
2019-05-02T17:18:43.131Z,19.44
2019-05-02T17:21:16.080Z,19.19
2019-05-02T17:23:49.952Z,19.13
2019-05-02T17:26:18.563Z,19.16
2019-05-02T17:28:47.764Z,18.75
2019-05-02T17:31:20.496Z,18.85
2019-05-02T17:33:51.035Z,18.56
2019-05-02T17:36:21.530Z,18.49
2019-05-02T17:38:59.268Z,18.75
2019-05-02T17:41:28.979Z,18.71
2019-05-02T17:43:59.204Z,18.81
2019-05-02T17:46:34.262Z,18.68
2019-05-02T17:49:06.092Z,18.39
2019-05-02T17:52:05.437Z,18.21
2019-05-02T17:54:27.486Z,18.13
2019-05-02T17:56:59.199Z,18.21
2019-05-02T17:59:34.641Z,18.07
2019-05-02T18:02:01.834Z,18.16
2019-05-02T18:04:32.530Z,18.11
2019-05-02T18:07:04.206Z,18.19
2019-05-02T18:09:35.151Z,17.94
2019-05-02T18:12:14.454Z,18.05
2019-05-02T18:14:42.109Z,17.96
2019-05-02T18:17:12.745Z,18.16
2019-05-02T18:19:42.691Z,17.99
2019-05-02T18:22:23.267Z,17.97
2019-05-02T18:24:46.378Z,17.78
2019-05-02T18:27:14.879Z,18.06
2019-05-02T18:29:45.677Z,18.10
2019-05-02T18:32:17.638Z,17.93
2019-05-02T18:34:48.184Z,17.88
2019-05-02T18:37:17.528Z,17.81
2019-05-02T18:39:53.230Z,17.80
2019-05-02T18:42:21.979Z,17.44
2019-05-02T18:44:53.048Z,17.57
2019-05-02T18:47:24.808Z,17.62
2019-05-02T18:50:00.691Z,17.77
2019-05-02T18:52:35.586Z,17.66
2019-05-02T18:54:56.072Z,17.68
2019-05-02T18:57:26.100Z,17.38
2019-05-02T18:59:56.398Z,17.58
2019-05-02T19:02:32.734Z,17.52
2019-05-02T19:04:58.039Z,17.41
2019-05-02T19:07:35.191Z,17.43
2019-05-02T19:10:04.305Z,17.37
2019-05-02T19:12:32.894Z,17.43
2019-05-02T19:15:06.767Z,17.48
2019-05-02T19:17:38.496Z,17.55
2019-05-02T19:20:06.218Z,17.47
2019-05-02T19:22:48.124Z,17.36
2019-05-02T19:25:12.094Z,17.49
2019-05-02T19:28:06.545Z,17.09
2019-05-02T19:30:36.732Z,16.99
2019-05-02T19:33:08.012Z,16.98
2019-05-02T19:35:42.460Z,17.12
2019-05-02T19:38:08.648Z,16.94
2019-05-02T19:40:39.727Z,16.88
2019-05-02T19:43:11.934Z,16.71
2019-05-02T19:45:40.226Z,16.68
2019-05-02T19:48:13.789Z,16.82
2019-05-02T19:50:43.856Z,16.85
2019-05-02T19:53:18.005Z,16.83
2019-05-02T19:55:43.887Z,16.78
2019-05-02T19:58:13.278Z,16.71
2019-05-02T20:00:46.274Z,16.76
2019-05-02T20:03:21.574Z,16.76
2019-05-02T20:05:48.410Z,16.81
2019-05-02T20:08:21.386Z,16.57
2019-05-02T20:10:56.694Z,16.89
2019-05-02T20:13:28.221Z,16.91
2019-05-02T20:16:01.881Z,17.07
2019-05-02T20:18:28.594Z,17.11
2019-05-02T20:21:23.419Z,17.13
2019-05-02T20:23:46.088Z,17.16
2019-05-02T20:26:17.068Z,17.31
2019-05-02T20:28:46.396Z,17.21
2019-05-02T20:31:15.801Z,17.23
2019-05-02T20:33:44.930Z,17.11
2019-05-02T20:36:14.059Z,16.81
2019-05-02T20:38:43.483Z,17.03
2019-05-02T20:41:12.847Z,16.99
2019-05-02T20:43:44.419Z,17.03
2019-05-02T20:46:13.018Z,17.09
2019-05-02T20:48:42.182Z,16.75
2019-05-02T20:51:12.141Z,17.04
2019-05-02T20:53:42.204Z,17.00
2019-05-02T20:56:12.401Z,16.75
2019-05-02T20:58:41.947Z,16.75
2019-05-02T21:01:12.442Z,16.68
2019-05-02T21:03:42.761Z,16.45
2019-05-02T21:06:44.033Z,16.13
2019-05-02T21:09:35.035Z,16.29
2019-05-02T21:12:06.527Z,16.04
2019-05-02T21:14:35.988Z,15.99
2019-05-02T21:17:05.198Z,15.98
2019-05-02T21:19:34.395Z,15.81
2019-05-02T21:22:08.374Z,15.77
2019-05-02T21:24:37.589Z,15.66
2019-05-02T21:27:08.264Z,15.76
2019-05-02T21:29:38.330Z,15.64
2019-05-02T21:32:07.457Z,15.69
2019-05-02T21:34:36.581Z,15.68
2019-05-02T21:37:06.108Z,15.66
2019-05-02T21:39:35.218Z,15.78
2019-05-02T21:42:05.214Z,15.72
2019-05-02T21:44:34.724Z,15.64
2019-05-02T21:47:05.882Z,15.58
2019-05-02T21:50:12.366Z,15.73
2019-05-02T21:53:04.352Z,16.00
2019-05-02T21:55:51.990Z,15.88
2019-05-02T21:58:21.635Z,16.03
2019-05-02T22:01:02.159Z,15.99
2019-05-02T22:03:32.456Z,15.79
2019-05-02T22:06:03.209Z,15.93
2019-05-02T22:08:32.435Z,15.93
2019-05-02T22:11:01.693Z,15.99
2019-05-02T22:13:31.594Z,16.16
2019-05-02T22:16:02.332Z,16.20
2019-05-02T22:18:32.142Z,16.30
2019-05-02T22:21:01.870Z,16.30
2019-05-02T22:23:33.926Z,16.07
2019-05-02T22:26:03.358Z,16.09
2019-05-02T22:28:32.797Z,16.20
2019-05-02T22:31:03.204Z,16.27
2019-05-02T22:33:32.879Z,16.17
2019-05-02T22:36:03.630Z,16.19
2019-05-02T22:38:42.229Z,15.96
2019-05-02T22:41:12.562Z,16.05
2019-05-02T22:43:42.246Z,16.09
2019-05-02T22:46:14.126Z,16.16
2019-05-02T22:48:43.182Z,16.25
2019-05-02T22:51:12.556Z,16.27
2019-05-02T22:53:41.829Z,16.37
2019-05-02T22:56:11.828Z,16.25
2019-05-02T22:58:42.137Z,16.25
2019-05-02T23:01:11.316Z,16.14
2019-05-02T23:03:41.854Z,16.07
2019-05-02T23:06:12.523Z,16.05
2019-05-02T23:08:43.487Z,15.93
2019-05-02T23:11:13.037Z,15.96
2019-05-02T23:13:42.361Z,15.72
2019-05-02T23:16:11.759Z,15.82
2019-05-02T23:18:42.488Z,15.97
2019-05-02T23:21:12.701Z,15.91
2019-05-02T23:23:42.151Z,15.93
2019-05-02T23:26:31.767Z,15.88
2019-05-02T23:29:02.692Z,15.71
2019-05-02T23:31:31.835Z,15.85
2019-05-02T23:34:02.033Z,15.83
2019-05-02T23:36:32.724Z,15.91
2019-05-02T23:39:02.090Z,15.85
2019-05-02T23:41:32.857Z,15.87
2019-05-02T23:44:03.273Z,15.72
2019-05-02T23:46:32.306Z,15.79
2019-05-02T23:49:01.979Z,15.77
2019-05-02T23:51:32.063Z,15.75
2019-05-02T23:54:02.060Z,15.85
2019-05-02T23:56:32.469Z,15.48
2019-05-02T23:59:02.758Z,15.54
